sensor_id;sensor_type;location;lat;lon;timestamp;P1;durP1;ratioP1;P2;durP2;ratioP2
42196;SDS011;27866;48.146;17.098;2024-01-07T00:02:03;25.02;;;12.02;;
42196;SDS011;27866;48.146;17.098;2024-01-07T00:06:14;20.88;;;10.80;;
42196;SDS011;27866;48.146;17.098;2024-01-07T00:10:26;18.83;;;11.25;;
42196;SDS011;27866;48.146;17.098;2024-01-07T00:14:37;19.20;;;10.43;;
42196;SDS011;27866;48.146;17.098;2024-01-07T00:18:49;19.95;;;10.88;;
42196;SDS011;27866;48.146;17.098;2024-01-07T00:23:00;15.43;;;9.73;;
42196;SDS011;27866;48.146;17.098;2024-01-07T00:27:12;15.52;;;9.10;;
42196;SDS011;27866;48.146;17.098;2024-01-07T00:31:24;14.77;;;9.18;;
42196;SDS011;27866;48.146;17.098;2024-01-07T00:35:36;19.35;;;9.00;;
42196;SDS011;27866;48.146;17.098;2024-01-07T00:39:47;14.48;;;8.90;;
42196;SDS011;27866;48.146;17.098;2024-01-07T00:43:59;16.45;;;8.77;;
42196;SDS011;27866;48.146;17.098;2024-01-07T00:48:11;13.15;;;7.00;;
42196;SDS011;27866;48.146;17.098;2024-01-07T00:52:22;15.18;;;8.30;;
42196;SDS011;27866;48.146;17.098;2024-01-07T00:56:34;18.15;;;8.70;;
42196;SDS011;27866;48.146;17.098;2024-01-07T01:00:45;14.48;;;7.53;;
42196;SDS011;27866;48.146;17.098;2024-01-07T01:04:57;15.50;;;7.93;;
42196;SDS011;27866;48.146;17.098;2024-01-07T01:09:08;13.95;;;7.05;;
42196;SDS011;27866;48.146;17.098;2024-01-07T01:13:20;12.48;;;7.20;;
42196;SDS011;27866;48.146;17.098;2024-01-07T01:17:31;13.52;;;7.55;;
42196;SDS011;27866;48.146;17.098;2024-01-07T01:21:43;14.73;;;7.82;;
42196;SDS011;27866;48.146;17.098;2024-01-07T01:25:55;16.05;;;7.90;;
42196;SDS011;27866;48.146;17.098;2024-01-07T01:30:06;12.45;;;6.70;;
42196;SDS011;27866;48.146;17.098;2024-01-07T01:34:18;14.13;;;7.53;;
42196;SDS011;27866;48.146;17.098;2024-01-07T01:38:30;12.50;;;7.32;;
42196;SDS011;27866;48.146;17.098;2024-01-07T01:42:45;11.82;;;7.75;;
42196;SDS011;27866;48.146;17.098;2024-01-07T01:46:58;14.88;;;7.55;;
42196;SDS011;27866;48.146;17.098;2024-01-07T01:51:11;11.55;;;7.05;;
42196;SDS011;27866;48.146;17.098;2024-01-07T01:55:22;14.02;;;7.80;;
42196;SDS011;27866;48.146;17.098;2024-01-07T01:59:34;13.27;;;7.28;;
42196;SDS011;27866;48.146;17.098;2024-01-07T02:03:46;11.13;;;5.28;;
42196;SDS011;27866;48.146;17.098;2024-01-07T02:07:58;11.00;;;6.80;;
42196;SDS011;27866;48.146;17.098;2024-01-07T02:12:10;11.60;;;7.00;;
42196;SDS011;27866;48.146;17.098;2024-01-07T02:16:22;12.88;;;6.22;;
42196;SDS011;27866;48.146;17.098;2024-01-07T02:20:33;10.07;;;5.63;;
42196;SDS011;27866;48.146;17.098;2024-01-07T02:24:46;13.48;;;7.38;;
42196;SDS011;27866;48.146;17.098;2024-01-07T02:28:57;12.50;;;7.15;;
42196;SDS011;27866;48.146;17.098;2024-01-07T02:33:09;13.15;;;7.90;;
42196;SDS011;27866;48.146;17.098;2024-01-07T02:37:21;16.02;;;7.90;;
42196;SDS011;27866;48.146;17.098;2024-01-07T02:41:33;13.57;;;7.25;;
42196;SDS011;27866;48.146;17.098;2024-01-07T02:45:45;13.73;;;7.40;;
42196;SDS011;27866;48.146;17.098;2024-01-07T02:49:56;13.73;;;7.78;;
42196;SDS011;27866;48.146;17.098;2024-01-07T02:54:08;14.93;;;8.35;;
42196;SDS011;27866;48.146;17.098;2024-01-07T02:58:20;12.50;;;8.23;;
42196;SDS011;27866;48.146;17.098;2024-01-07T03:02:31;11.82;;;5.95;;
42196;SDS011;27866;48.146;17.098;2024-01-07T03:06:43;12.95;;;8.15;;
42196;SDS011;27866;48.146;17.098;2024-01-07T03:10:54;15.13;;;8.40;;
42196;SDS011;27866;48.146;17.098;2024-01-07T03:15:06;16.30;;;8.75;;
42196;SDS011;27866;48.146;17.098;2024-01-07T03:19:19;15.68;;;8.75;;
42196;SDS011;27866;48.146;17.098;2024-01-07T03:23:31;13.40;;;7.97;;
42196;SDS011;27866;48.146;17.098;2024-01-07T03:27:43;13.60;;;7.78;;
42196;SDS011;27866;48.146;17.098;2024-01-07T03:31:54;17.00;;;10.00;;
42196;SDS011;27866;48.146;17.098;2024-01-07T03:36:06;17.63;;;10.02;;
42196;SDS011;27866;48.146;17.098;2024-01-07T03:40:19;13.73;;;8.45;;
42196;SDS011;27866;48.146;17.098;2024-01-07T03:44:30;16.13;;;9.85;;
42196;SDS011;27866;48.146;17.098;2024-01-07T03:48:42;16.67;;;9.65;;
42196;SDS011;27866;48.146;17.098;2024-01-07T03:52:54;18.10;;;9.57;;
42196;SDS011;27866;48.146;17.098;2024-01-07T03:57:06;14.48;;;9.13;;
42196;SDS011;27866;48.146;17.098;2024-01-07T04:01:17;19.67;;;10.73;;
42196;SDS011;27866;48.146;17.098;2024-01-07T04:05:29;17.65;;;10.15;;
42196;SDS011;27866;48.146;17.098;2024-01-07T04:09:42;17.90;;;9.07;;
42196;SDS011;27866;48.146;17.098;2024-01-07T04:13:54;17.27;;;9.77;;
42196;SDS011;27866;48.146;17.098;2024-01-07T04:18:06;15.50;;;8.57;;
42196;SDS011;27866;48.146;17.098;2024-01-07T04:22:17;16.77;;;9.75;;
42196;SDS011;27866;48.146;17.098;2024-01-07T04:26:29;14.90;;;9.88;;
42196;SDS011;27866;48.146;17.098;2024-01-07T04:30:40;19.85;;;10.30;;
42196;SDS011;27866;48.146;17.098;2024-01-07T04:34:52;19.65;;;10.00;;
42196;SDS011;27866;48.146;17.098;2024-01-07T04:39:04;16.85;;;9.77;;
42196;SDS011;27866;48.146;17.098;2024-01-07T04:43:15;17.08;;;10.10;;
42196;SDS011;27866;48.146;17.098;2024-01-07T04:47:28;15.25;;;9.98;;
42196;SDS011;27866;48.146;17.098;2024-01-07T04:51:40;17.27;;;9.87;;
42196;SDS011;27866;48.146;17.098;2024-01-07T04:55:52;17.92;;;10.27;;
42196;SDS011;27866;48.146;17.098;2024-01-07T05:00:03;16.92;;;8.82;;
42196;SDS011;27866;48.146;17.098;2024-01-07T05:04:15;15.55;;;9.80;;
42196;SDS011;27866;48.146;17.098;2024-01-07T05:08:27;15.65;;;8.60;;
42196;SDS011;27866;48.146;17.098;2024-01-07T05:12:39;14.68;;;9.00;;
42196;SDS011;27866;48.146;17.098;2024-01-07T05:16:50;13.50;;;8.30;;
42196;SDS011;27866;48.146;17.098;2024-01-07T05:21:05;13.95;;;8.60;;
42196;SDS011;27866;48.146;17.098;2024-01-07T05:25:17;17.35;;;10.00;;
42196;SDS011;27866;48.146;17.098;2024-01-07T05:29:28;15.52;;;8.38;;
42196;SDS011;27866;48.146;17.098;2024-01-07T05:33:40;13.27;;;8.13;;
42196;SDS011;27866;48.146;17.098;2024-01-07T05:37:51;16.83;;;8.52;;
42196;SDS011;27866;48.146;17.098;2024-01-07T05:42:03;18.00;;;9.85;;
42196;SDS011;27866;48.146;17.098;2024-01-07T05:46:15;17.45;;;9.77;;
42196;SDS011;27866;48.146;17.098;2024-01-07T05:50:26;15.23;;;9.05;;
42196;SDS011;27866;48.146;17.098;2024-01-07T05:54:38;16.42;;;8.75;;
42196;SDS011;27866;48.146;17.098;2024-01-07T05:58:50;14.90;;;7.97;;
42196;SDS011;27866;48.146;17.098;2024-01-07T06:03:01;14.80;;;8.35;;
42196;SDS011;27866;48.146;17.098;2024-01-07T06:07:13;16.33;;;9.32;;
42196;SDS011;27866;48.146;17.098;2024-01-07T06:11:24;15.07;;;8.52;;
42196;SDS011;27866;48.146;17.098;2024-01-07T06:15:36;13.40;;;7.15;;
42196;SDS011;27866;48.146;17.098;2024-01-07T06:19:47;17.58;;;9.38;;
42196;SDS011;27866;48.146;17.098;2024-01-07T06:23:59;16.98;;;8.95;;
42196;SDS011;27866;48.146;17.098;2024-01-07T06:28:10;13.60;;;7.38;;
42196;SDS011;27866;48.146;17.098;2024-01-07T06:32:22;14.23;;;8.50;;
42196;SDS011;27866;48.146;17.098;2024-01-07T06:36:35;15.02;;;8.77;;
42196;SDS011;27866;48.146;17.098;2024-01-07T06:40:46;17.48;;;9.90;;
42196;SDS011;27866;48.146;17.098;2024-01-07T06:44:58;15.32;;;7.95;;
42196;SDS011;27866;48.146;17.098;2024-01-07T06:49:09;15.85;;;9.43;;
42196;SDS011;27866;48.146;17.098;2024-01-07T06:53:21;15.15;;;8.40;;
42196;SDS011;27866;48.146;17.098;2024-01-07T06:57:33;15.80;;;8.48;;
42196;SDS011;27866;48.146;17.098;2024-01-07T07:01:44;15.77;;;9.27;;
42196;SDS011;27866;48.146;17.098;2024-01-07T07:05:56;16.55;;;8.45;;
42196;SDS011;27866;48.146;17.098;2024-01-07T07:10:07;16.25;;;9.23;;
42196;SDS011;27866;48.146;17.098;2024-01-07T07:14:19;14.95;;;8.98;;
42196;SDS011;27866;48.146;17.098;2024-01-07T07:18:31;15.18;;;7.82;;
42196;SDS011;27866;48.146;17.098;2024-01-07T07:22:43;21.38;;;8.82;;
42196;SDS011;27866;48.146;17.098;2024-01-07T07:26:54;13.82;;;8.63;;
42196;SDS011;27866;48.146;17.098;2024-01-07T07:31:06;14.48;;;8.15;;
42196;SDS011;27866;48.146;17.098;2024-01-07T07:35:17;11.80;;;6.40;;
42196;SDS011;27866;48.146;17.098;2024-01-07T07:39:29;15.88;;;7.38;;
42196;SDS011;27866;48.146;17.098;2024-01-07T07:43:41;8.60;;;5.57;;
42196;SDS011;27866;48.146;17.098;2024-01-07T07:47:52;11.73;;;7.05;;
42196;SDS011;27866;48.146;17.098;2024-01-07T07:52:04;13.52;;;7.53;;
42196;SDS011;27866;48.146;17.098;2024-01-07T07:56:15;13.93;;;7.50;;
42196;SDS011;27866;48.146;17.098;2024-01-07T08:00:27;11.88;;;6.65;;
42196;SDS011;27866;48.146;17.098;2024-01-07T08:04:39;12.65;;;5.50;;
42196;SDS011;27866;48.146;17.098;2024-01-07T08:08:52;11.68;;;6.10;;
42196;SDS011;27866;48.146;17.098;2024-01-07T08:13:03;11.35;;;6.25;;
42196;SDS011;27866;48.146;17.098;2024-01-07T08:17:16;9.98;;;5.68;;
42196;SDS011;27866;48.146;17.098;2024-01-07T08:21:28;8.82;;;5.32;;
42196;SDS011;27866;48.146;17.098;2024-01-07T08:25:39;10.27;;;5.95;;
42196;SDS011;27866;48.146;17.098;2024-01-07T08:29:51;12.65;;;6.55;;
42196;SDS011;27866;48.146;17.098;2024-01-07T08:34:03;10.52;;;6.25;;
42196;SDS011;27866;48.146;17.098;2024-01-07T08:38:15;12.27;;;6.63;;
42196;SDS011;27866;48.146;17.098;2024-01-07T08:42:27;9.73;;;5.63;;
42196;SDS011;27866;48.146;17.098;2024-01-07T08:46:40;11.05;;;5.72;;
42196;SDS011;27866;48.146;17.098;2024-01-07T08:50:52;6.35;;;4.03;;
42196;SDS011;27866;48.146;17.098;2024-01-07T08:55:03;9.93;;;5.20;;
42196;SDS011;27866;48.146;17.098;2024-01-07T08:59:16;11.98;;;6.05;;
42196;SDS011;27866;48.146;17.098;2024-01-07T09:03:28;8.50;;;5.47;;
42196;SDS011;27866;48.146;17.098;2024-01-07T09:07:39;11.18;;;5.72;;
42196;SDS011;27866;48.146;17.098;2024-01-07T09:11:52;10.23;;;5.53;;
42196;SDS011;27866;48.146;17.098;2024-01-07T09:16:03;6.30;;;3.67;;
42196;SDS011;27866;48.146;17.098;2024-01-07T09:20:15;7.68;;;4.40;;
42196;SDS011;27866;48.146;17.098;2024-01-07T09:24:27;9.68;;;5.35;;
42196;SDS011;27866;48.146;17.098;2024-01-07T09:28:39;9.00;;;5.25;;
42196;SDS011;27866;48.146;17.098;2024-01-07T09:32:53;10.23;;;6.67;;
42196;SDS011;27866;48.146;17.098;2024-01-07T09:37:04;9.55;;;5.93;;
42196;SDS011;27866;48.146;17.098;2024-01-07T09:41:16;7.60;;;4.65;;
42196;SDS011;27866;48.146;17.098;2024-01-07T09:45:27;5.95;;;4.35;;
42196;SDS011;27866;48.146;17.098;2024-01-07T09:49:40;10.68;;;5.40;;
42196;SDS011;27866;48.146;17.098;2024-01-07T09:53:54;10.30;;;6.50;;
42196;SDS011;27866;48.146;17.098;2024-01-07T09:58:09;10.77;;;6.85;;
42196;SDS011;27866;48.146;17.098;2024-01-07T10:02:20;8.13;;;5.70;;
42196;SDS011;27866;48.146;17.098;2024-01-07T10:06:33;8.27;;;4.85;;
42196;SDS011;27866;48.146;17.098;2024-01-07T10:10:44;11.57;;;5.90;;
42196;SDS011;27866;48.146;17.098;2024-01-07T10:14:58;11.38;;;5.95;;
42196;SDS011;27866;48.146;17.098;2024-01-07T10:19:10;9.57;;;5.68;;
42196;SDS011;27866;48.146;17.098;2024-01-07T10:23:21;9.32;;;5.70;;
42196;SDS011;27866;48.146;17.098;2024-01-07T10:27:33;9.93;;;5.80;;
42196;SDS011;27866;48.146;17.098;2024-01-07T10:31:48;7.57;;;4.68;;
42196;SDS011;27866;48.146;17.098;2024-01-07T10:36:05;12.43;;;6.78;;
42196;SDS011;27866;48.146;17.098;2024-01-07T10:40:17;10.35;;;5.60;;
42196;SDS011;27866;48.146;17.098;2024-01-07T10:44:31;12.30;;;6.10;;
42196;SDS011;27866;48.146;17.098;2024-01-07T10:48:59;9.77;;;5.63;;
42196;SDS011;27866;48.146;17.098;2024-01-07T10:53:18;11.90;;;5.55;;
42196;SDS011;27866;48.146;17.098;2024-01-07T10:57:42;10.73;;;5.72;;
42196;SDS011;27866;48.146;17.098;2024-01-07T11:01:55;13.27;;;6.07;;
42196;SDS011;27866;48.146;17.098;2024-01-07T11:06:19;8.00;;;5.47;;
42196;SDS011;27866;48.146;17.098;2024-01-07T11:11:07;12.00;;;6.15;;
42196;SDS011;27866;48.146;17.098;2024-01-07T11:20:01;11.95;;;5.32;;
42196;SDS011;27866;48.146;17.098;2024-01-07T11:24:39;9.60;;;4.88;;
42196;SDS011;27866;48.146;17.098;2024-01-07T11:28:56;12.57;;;5.90;;
42196;SDS011;27866;48.146;17.098;2024-01-07T11:33:09;11.20;;;5.88;;
42196;SDS011;27866;48.146;17.098;2024-01-07T11:37:23;7.10;;;4.50;;
42196;SDS011;27866;48.146;17.098;2024-01-07T11:41:35;11.98;;;5.88;;
42196;SDS011;27866;48.146;17.098;2024-01-07T11:45:50;8.98;;;5.80;;
42196;SDS011;27866;48.146;17.098;2024-01-07T11:50:02;14.02;;;5.10;;
42196;SDS011;27866;48.146;17.098;2024-01-07T11:54:14;13.05;;;6.18;;
42196;SDS011;27866;48.146;17.098;2024-01-07T11:58:25;7.47;;;4.80;;
42196;SDS011;27866;48.146;17.098;2024-01-07T12:02:37;10.55;;;5.53;;
42196;SDS011;27866;48.146;17.098;2024-01-07T12:06:48;11.05;;;5.43;;
42196;SDS011;27866;48.146;17.098;2024-01-07T12:11:00;10.32;;;5.72;;
42196;SDS011;27866;48.146;17.098;2024-01-07T12:15:12;8.80;;;6.03;;
42196;SDS011;27866;48.146;17.098;2024-01-07T12:19:23;14.25;;;6.72;;
42196;SDS011;27866;48.146;17.098;2024-01-07T12:23:35;10.95;;;5.55;;
42196;SDS011;27866;48.146;17.098;2024-01-07T12:27:48;10.57;;;5.60;;
42196;SDS011;27866;48.146;17.098;2024-01-07T12:32:02;11.45;;;5.97;;
42196;SDS011;27866;48.146;17.098;2024-01-07T12:36:19;11.43;;;6.40;;
42196;SDS011;27866;48.146;17.098;2024-01-07T12:40:32;10.45;;;6.13;;
42196;SDS011;27866;48.146;17.098;2024-01-07T12:44:45;8.38;;;5.53;;
42196;SDS011;27866;48.146;17.098;2024-01-07T12:48:58;11.25;;;5.60;;
42196;SDS011;27866;48.146;17.098;2024-01-07T12:53:10;10.38;;;6.40;;
42196;SDS011;27866;48.146;17.098;2024-01-07T12:57:21;9.35;;;5.15;;
42196;SDS011;27866;48.146;17.098;2024-01-07T13:01:33;13.35;;;6.63;;
42196;SDS011;27866;48.146;17.098;2024-01-07T13:05:47;14.65;;;6.88;;
42196;SDS011;27866;48.146;17.098;2024-01-07T13:10:01;7.63;;;3.40;;
42196;SDS011;27866;48.146;17.098;2024-01-07T13:14:13;12.23;;;6.80;;
42196;SDS011;27866;48.146;17.098;2024-01-07T13:18:24;10.43;;;6.35;;
42196;SDS011;27866;48.146;17.098;2024-01-07T13:22:39;9.85;;;5.78;;
42196;SDS011;27866;48.146;17.098;2024-01-07T13:26:51;13.25;;;6.70;;
42196;SDS011;27866;48.146;17.098;2024-01-07T13:31:03;10.52;;;5.25;;
42196;SDS011;27866;48.146;17.098;2024-01-07T13:35:16;14.43;;;7.30;;
42196;SDS011;27866;48.146;17.098;2024-01-07T13:39:28;10.65;;;5.60;;
42196;SDS011;27866;48.146;17.098;2024-01-07T13:43:41;15.05;;;8.20;;
42196;SDS011;27866;48.146;17.098;2024-01-07T13:47:53;12.77;;;6.85;;
42196;SDS011;27866;48.146;17.098;2024-01-07T13:52:05;16.25;;;8.23;;
42196;SDS011;27866;48.146;17.098;2024-01-07T13:56:16;11.57;;;5.85;;
42196;SDS011;27866;48.146;17.098;2024-01-07T14:00:28;14.25;;;6.68;;
42196;SDS011;27866;48.146;17.098;2024-01-07T14:04:40;15.88;;;8.60;;
42196;SDS011;27866;48.146;17.098;2024-01-07T14:08:52;14.65;;;7.85;;
42196;SDS011;27866;48.146;17.098;2024-01-07T14:13:03;17.27;;;8.73;;
42196;SDS011;27866;48.146;17.098;2024-01-07T14:17:15;15.38;;;7.07;;
42196;SDS011;27866;48.146;17.098;2024-01-07T14:21:26;18.55;;;8.75;;
42196;SDS011;27866;48.146;17.098;2024-01-07T14:25:39;17.02;;;8.35;;
42196;SDS011;27866;48.146;17.098;2024-01-07T14:29:52;14.65;;;7.72;;
42196;SDS011;27866;48.146;17.098;2024-01-07T14:34:03;18.08;;;8.23;;
42196;SDS011;27866;48.146;17.098;2024-01-07T14:38:15;17.05;;;9.10;;
42196;SDS011;27866;48.146;17.098;2024-01-07T14:42:26;13.32;;;7.30;;
42196;SDS011;27866;48.146;17.098;2024-01-07T14:46:38;13.05;;;5.38;;
42196;SDS011;27866;48.146;17.098;2024-01-07T14:50:49;17.75;;;8.43;;
42196;SDS011;27866;48.146;17.098;2024-01-07T14:55:02;15.10;;;7.88;;
42196;SDS011;27866;48.146;17.098;2024-01-07T14:59:13;13.50;;;7.70;;
42196;SDS011;27866;48.146;17.098;2024-01-07T15:03:25;16.13;;;8.13;;
42196;SDS011;27866;48.146;17.098;2024-01-07T15:07:36;13.85;;;6.65;;
42196;SDS011;27866;48.146;17.098;2024-01-07T15:11:48;13.38;;;7.45;;
42196;SDS011;27866;48.146;17.098;2024-01-07T15:16:00;13.23;;;8.10;;
42196;SDS011;27866;48.146;17.098;2024-01-07T15:20:12;15.15;;;8.57;;
42196;SDS011;27866;48.146;17.098;2024-01-07T15:24:24;17.45;;;8.98;;
42196;SDS011;27866;48.146;17.098;2024-01-07T15:28:35;17.15;;;9.07;;
42196;SDS011;27866;48.146;17.098;2024-01-07T15:32:47;14.15;;;6.88;;
42196;SDS011;27866;48.146;17.098;2024-01-07T15:36:59;14.23;;;6.93;;
42196;SDS011;27866;48.146;17.098;2024-01-07T15:41:10;12.32;;;6.57;;
42196;SDS011;27866;48.146;17.098;2024-01-07T15:45:22;15.98;;;8.30;;
42196;SDS011;27866;48.146;17.098;2024-01-07T15:49:33;17.38;;;8.70;;
42196;SDS011;27866;48.146;17.098;2024-01-07T15:53:45;12.30;;;6.40;;
42196;SDS011;27866;48.146;17.098;2024-01-07T15:57:57;15.95;;;8.02;;
42196;SDS011;27866;48.146;17.098;2024-01-07T16:02:08;17.25;;;8.85;;
42196;SDS011;27866;48.146;17.098;2024-01-07T16:06:20;21.17;;;8.75;;
42196;SDS011;27866;48.146;17.098;2024-01-07T16:10:31;17.52;;;8.55;;
42196;SDS011;27866;48.146;17.098;2024-01-07T16:14:43;8.18;;;5.03;;
42196;SDS011;27866;48.146;17.098;2024-01-07T16:18:55;15.00;;;8.05;;
42196;SDS011;27866;48.146;17.098;2024-01-07T16:23:06;19.55;;;9.40;;
42196;SDS011;27866;48.146;17.098;2024-01-07T16:27:18;13.48;;;6.80;;
42196;SDS011;27866;48.146;17.098;2024-01-07T16:31:31;13.05;;;7.78;;
42196;SDS011;27866;48.146;17.098;2024-01-07T16:35:42;15.52;;;9.15;;
42196;SDS011;27866;48.146;17.098;2024-01-07T16:39:54;17.73;;;9.00;;
42196;SDS011;27866;48.146;17.098;2024-01-07T16:44:06;15.57;;;6.97;;
42196;SDS011;27866;48.146;17.098;2024-01-07T16:48:19;16.23;;;8.55;;
42196;SDS011;27866;48.146;17.098;2024-01-07T16:52:30;19.20;;;8.38;;
42196;SDS011;27866;48.146;17.098;2024-01-07T16:56:42;18.38;;;9.45;;
42196;SDS011;27866;48.146;17.098;2024-01-07T17:00:53;16.60;;;8.38;;
42196;SDS011;27866;48.146;17.098;2024-01-07T17:05:07;15.82;;;8.20;;
42196;SDS011;27866;48.146;17.098;2024-01-07T17:09:19;18.75;;;9.07;;
42196;SDS011;27866;48.146;17.098;2024-01-07T17:13:34;14.35;;;7.30;;
42196;SDS011;27866;48.146;17.098;2024-01-07T17:17:47;14.32;;;7.43;;
42196;SDS011;27866;48.146;17.098;2024-01-07T17:21:58;15.20;;;9.30;;
42196;SDS011;27866;48.146;17.098;2024-01-07T17:26:10;17.00;;;9.65;;
42196;SDS011;27866;48.146;17.098;2024-01-07T17:30:22;20.63;;;8.00;;
42196;SDS011;27866;48.146;17.098;2024-01-07T17:34:37;14.15;;;7.68;;
42196;SDS011;27866;48.146;17.098;2024-01-07T17:38:48;13.70;;;7.03;;
42196;SDS011;27866;48.146;17.098;2024-01-07T17:43:00;18.45;;;8.55;;
42196;SDS011;27866;48.146;17.098;2024-01-07T17:47:12;15.15;;;7.78;;
42196;SDS011;27866;48.146;17.098;2024-01-07T17:51:26;18.27;;;8.85;;
42196;SDS011;27866;48.146;17.098;2024-01-07T17:55:41;14.27;;;7.13;;
42196;SDS011;27866;48.146;17.098;2024-01-07T17:59:53;14.75;;;6.82;;
42196;SDS011;27866;48.146;17.098;2024-01-07T18:04:05;13.88;;;6.53;;
42196;SDS011;27866;48.146;17.098;2024-01-07T18:08:17;19.45;;;8.60;;
42196;SDS011;27866;48.146;17.098;2024-01-07T18:12:29;17.42;;;8.32;;
42196;SDS011;27866;48.146;17.098;2024-01-07T18:16:40;15.48;;;8.18;;
42196;SDS011;27866;48.146;17.098;2024-01-07T18:20:52;20.60;;;6.85;;
42196;SDS011;27866;48.146;17.098;2024-01-07T18:25:03;11.40;;;4.50;;
42196;SDS011;27866;48.146;17.098;2024-01-07T18:29:16;15.75;;;8.13;;
42196;SDS011;27866;48.146;17.098;2024-01-07T18:33:27;19.88;;;10.10;;
42196;SDS011;27866;48.146;17.098;2024-01-07T18:37:39;16.75;;;8.60;;
42196;SDS011;27866;48.146;17.098;2024-01-07T18:41:53;16.85;;;8.73;;
42196;SDS011;27866;48.146;17.098;2024-01-07T18:46:09;16.20;;;8.93;;
42196;SDS011;27866;48.146;17.098;2024-01-07T18:50:20;17.80;;;7.32;;
42196;SDS011;27866;48.146;17.098;2024-01-07T18:54:32;19.58;;;10.60;;
42196;SDS011;27866;48.146;17.098;2024-01-07T18:58:51;7.78;;;5.72;;
42196;SDS011;27866;48.146;17.098;2024-01-07T19:03:03;17.45;;;9.90;;
42196;SDS011;27866;48.146;17.098;2024-01-07T19:07:14;19.15;;;9.80;;
42196;SDS011;27866;48.146;17.098;2024-01-07T19:11:26;18.85;;;9.65;;
42196;SDS011;27866;48.146;17.098;2024-01-07T19:15:37;16.65;;;9.05;;
42196;SDS011;27866;48.146;17.098;2024-01-07T19:19:50;20.52;;;9.90;;
42196;SDS011;27866;48.146;17.098;2024-01-07T19:24:02;20.75;;;10.85;;
42196;SDS011;27866;48.146;17.098;2024-01-07T19:28:14;22.05;;;8.98;;
42196;SDS011;27866;48.146;17.098;2024-01-07T19:32:26;23.27;;;10.13;;
42196;SDS011;27866;48.146;17.098;2024-01-07T19:36:41;14.68;;;7.47;;
42196;SDS011;27866;48.146;17.098;2024-01-07T19:40:53;24.95;;;10.77;;
42196;SDS011;27866;48.146;17.098;2024-01-07T19:45:05;21.55;;;9.63;;
42196;SDS011;27866;48.146;17.098;2024-01-07T19:49:17;12.95;;;7.13;;
42196;SDS011;27866;48.146;17.098;2024-01-07T19:53:28;12.23;;;6.32;;
42196;SDS011;27866;48.146;17.098;2024-01-07T19:57:40;14.00;;;7.30;;
42196;SDS011;27866;48.146;17.098;2024-01-07T20:01:51;19.45;;;9.85;;
42196;SDS011;27866;48.146;17.098;2024-01-07T20:06:05;18.98;;;9.88;;
42196;SDS011;27866;48.146;17.098;2024-01-07T20:10:23;20.48;;;10.73;;
42196;SDS011;27866;48.146;17.098;2024-01-07T20:14:36;17.08;;;8.23;;
42196;SDS011;27866;48.146;17.098;2024-01-07T20:18:48;20.05;;;9.43;;
42196;SDS011;27866;48.146;17.098;2024-01-07T20:23:00;17.38;;;8.20;;
42196;SDS011;27866;48.146;17.098;2024-01-07T20:27:12;21.23;;;10.77;;
42196;SDS011;27866;48.146;17.098;2024-01-07T20:31:23;15.13;;;6.47;;
42196;SDS011;27866;48.146;17.098;2024-01-07T20:35:38;19.98;;;8.88;;
42196;SDS011;27866;48.146;17.098;2024-01-07T20:39:50;20.58;;;9.90;;
42196;SDS011;27866;48.146;17.098;2024-01-07T20:44:02;12.98;;;6.82;;
42196;SDS011;27866;48.146;17.098;2024-01-07T20:48:14;21.35;;;9.80;;
42196;SDS011;27866;48.146;17.098;2024-01-07T20:52:26;19.38;;;9.38;;
42196;SDS011;27866;48.146;17.098;2024-01-07T20:56:38;21.58;;;10.68;;
42196;SDS011;27866;48.146;17.098;2024-01-07T21:00:50;16.98;;;8.48;;
42196;SDS011;27866;48.146;17.098;2024-01-07T21:05:02;18.42;;;8.95;;
42196;SDS011;27866;48.146;17.098;2024-01-07T21:09:13;16.08;;;8.02;;
42196;SDS011;27866;48.146;17.098;2024-01-07T21:13:25;22.77;;;10.98;;
42196;SDS011;27866;48.146;17.098;2024-01-07T21:17:37;13.80;;;7.57;;
42196;SDS011;27866;48.146;17.098;2024-01-07T21:21:49;17.98;;;10.20;;
42196;SDS011;27866;48.146;17.098;2024-01-07T21:26:02;17.00;;;9.40;;
42196;SDS011;27866;48.146;17.098;2024-01-07T21:30:16;18.08;;;8.98;;
42196;SDS011;27866;48.146;17.098;2024-01-07T21:34:28;21.73;;;11.60;;
42196;SDS011;27866;48.146;17.098;2024-01-07T21:38:40;25.15;;;11.65;;
42196;SDS011;27866;48.146;17.098;2024-01-07T21:42:52;24.58;;;11.98;;
42196;SDS011;27866;48.146;17.098;2024-01-07T21:47:03;14.50;;;7.45;;
42196;SDS011;27866;48.146;17.098;2024-01-07T21:51:15;17.13;;;8.85;;
42196;SDS011;27866;48.146;17.098;2024-01-07T21:55:26;18.50;;;9.02;;
42196;SDS011;27866;48.146;17.098;2024-01-07T21:59:39;19.52;;;10.32;;
42196;SDS011;27866;48.146;17.098;2024-01-07T22:03:51;25.50;;;11.48;;
42196;SDS011;27866;48.146;17.098;2024-01-07T22:08:03;17.98;;;8.48;;
42196;SDS011;27866;48.146;17.098;2024-01-07T22:12:15;15.05;;;8.43;;
42196;SDS011;27866;48.146;17.098;2024-01-07T22:16:26;20.25;;;8.55;;
42196;SDS011;27866;48.146;17.098;2024-01-07T22:20:40;22.03;;;11.67;;
42196;SDS011;27866;48.146;17.098;2024-01-07T22:24:51;22.60;;;10.13;;
42196;SDS011;27866;48.146;17.098;2024-01-07T22:29:03;29.95;;;12.90;;
42196;SDS011;27866;48.146;17.098;2024-01-07T22:33:14;25.48;;;10.25;;
42196;SDS011;27866;48.146;17.098;2024-01-07T22:37:26;23.17;;;10.63;;
42196;SDS011;27866;48.146;17.098;2024-01-07T22:41:40;24.15;;;11.80;;
42196;SDS011;27866;48.146;17.098;2024-01-07T22:45:53;21.60;;;9.38;;
42196;SDS011;27866;48.146;17.098;2024-01-07T22:50:05;24.00;;;10.32;;
42196;SDS011;27866;48.146;17.098;2024-01-07T22:54:17;26.38;;;9.90;;
42196;SDS011;27866;48.146;17.098;2024-01-07T22:58:28;19.98;;;8.35;;
42196;SDS011;27866;48.146;17.098;2024-01-07T23:02:40;23.35;;;10.98;;
42196;SDS011;27866;48.146;17.098;2024-01-07T23:06:52;23.17;;;11.82;;
42196;SDS011;27866;48.146;17.098;2024-01-07T23:11:04;26.00;;;12.25;;
42196;SDS011;27866;48.146;17.098;2024-01-07T23:15:16;24.05;;;11.55;;
42196;SDS011;27866;48.146;17.098;2024-01-07T23:19:28;25.02;;;10.93;;
42196;SDS011;27866;48.146;17.098;2024-01-07T23:23:40;20.10;;;8.80;;
42196;SDS011;27866;48.146;17.098;2024-01-07T23:27:51;25.23;;;10.65;;
42196;SDS011;27866;48.146;17.098;2024-01-07T23:32:05;29.83;;;11.53;;
42196;SDS011;27866;48.146;17.098;2024-01-07T23:36:17;20.42;;;8.45;;
42196;SDS011;27866;48.146;17.098;2024-01-07T23:40:28;23.42;;;9.55;;
42196;SDS011;27866;48.146;17.098;2024-01-07T23:44:40;22.83;;;11.35;;
42196;SDS011;27866;48.146;17.098;2024-01-07T23:48:51;13.07;;;6.70;;
42196;SDS011;27866;48.146;17.098;2024-01-07T23:53:03;16.20;;;7.80;;
42196;SDS011;27866;48.146;17.098;2024-01-07T23:57:14;22.75;;;11.55;;
